Time;durP1;ratioP1;P1;durP2;ratioP2;P2;SDS_P1;SDS_P2;PMS_P1;PMS_P2;Temp;Humidity;BMP_temperature;BMP_pressure;BME280_temperature;BME280_humidity;BME280_pressure;Samples;Min_cycle;Max_cycle;Signal;HPM_P1;HPM_P2
2022/10/31 00:00:12;;;;;;;26.40;16.10;;;;;;;;;;5076175;28;20173;-69
2022/10/31 00:02:38;;;;;;;19.47;15.13;;;;;;;;;;5075513;28;20210;-69
2022/10/31 00:05:04;;;;;;;20.27;14.53;;;;;;;;;;5075525;28;20181;-69
2022/10/31 00:07:30;;;;;;;25.20;16.30;;;;;;;;;;5075857;28;20221;-69
2022/10/31 00:09:56;;;;;;;28.03;16.90;;;;;;;;;;5076320;28;20169;-69
2022/10/31 00:12:22;;;;;;;25.53;16.70;;;;;;;;;;5056455;28;20214;-69
2022/10/31 00:14:48;;;;;;;22.73;15.70;;;;;;;;;;5075686;28;20178;-68
2022/10/31 00:17:14;;;;;;;23.10;15.80;;;;;;;;;;5057343;28;20603;-69
2022/10/31 00:19:40;;;;;;;22.97;15.93;;;;;;;;;;5057275;28;20185;-69
2022/10/31 00:22:06;;;;;;;30.00;16.57;;;;;;;;;;5057656;28;20745;-69
2022/10/31 00:24:32;;;;;;;23.77;16.20;;;;;;;;;;5075918;28;20201;-69
2022/10/31 00:26:58;;;;;;;24.87;16.47;;;;;;;;;;5057232;28;20178;-69
2022/10/31 00:29:24;;;;;;;25.10;15.87;;;;;;;;;;5057322;28;20710;-70
2022/10/31 00:31:50;;;;;;;21.73;16.33;;;;;;;;;;5095292;22;20621;-67
2022/10/31 00:34:16;;;;;;;29.00;17.37;;;;;;;;;;5074958;28;20312;-67
2022/10/31 00:36:42;;;;;;;23.43;17.00;;;;;;;;;;5074920;28;20637;-67
2022/10/31 00:39:07;;;;;;;24.13;16.57;;;;;;;;;;5074791;28;20182;-67
2022/10/31 00:41:33;;;;;;;25.83;16.00;;;;;;;;;;5074807;28;20285;-70
2022/10/31 00:43:59;;;;;;;27.23;16.27;;;;;;;;;;5074962;28;20205;-68
2022/10/31 00:46:25;;;;;;;26.07;16.77;;;;;;;;;;5074765;28;20572;-68
2022/10/31 00:48:51;;;;;;;21.70;15.90;;;;;;;;;;5074721;28;20186;-68
2022/10/31 00:51:17;;;;;;;26.57;16.97;;;;;;;;;;5074735;28;20186;-68
2022/10/31 00:53:43;;;;;;;30.53;17.17;;;;;;;;;;5073304;28;20268;-68
2022/10/31 00:56:09;;;;;;;23.33;17.27;;;;;;;;;;5074774;28;20173;-67
2022/10/31 00:58:35;;;;;;;24.73;15.87;;;;;;;;;;5074593;28;20178;-67
2022/10/31 01:01:01;;;;;;;24.90;16.37;;;;;;;;;;5073241;28;20254;-67
2022/10/31 01:03:28;;;;;;;21.73;15.83;;;;;;;;;;5073057;28;20673;-66
2022/10/31 01:06:05;;;;;;;20.80;15.03;;;;;;;;;;5074403;28;20165;-67
2022/10/31 01:08:31;;;;;;;23.17;16.87;;;;;;;;;;5074230;28;20177;-67
2022/10/31 01:11:02;;;;;;;23.93;16.87;;;;;;;;;;5074164;28;20201;-67
2022/10/31 01:13:28;;;;;;;26.17;16.00;;;;;;;;;;5074212;28;20205;-67
2022/10/31 01:15:55;;;;;;;24.90;16.03;;;;;;;;;;5074414;28;20234;-67
2022/10/31 01:18:21;;;;;;;27.63;17.37;;;;;;;;;;5074149;28;20204;-68
2022/10/31 01:20:47;;;;;;;23.83;17.00;;;;;;;;;;5073913;28;20209;-67
2022/10/31 01:23:13;;;;;;;26.87;18.13;;;;;;;;;;5074436;28;20201;-67
2022/10/31 01:25:39;;;;;;;29.70;17.33;;;;;;;;;;5073864;28;20186;-68
2022/10/31 01:28:04;;;;;;;26.03;18.00;;;;;;;;;;5072579;28;20268;-69
2022/10/31 01:30:30;;;;;;;26.10;18.00;;;;;;;;;;5073586;28;20208;-70
2022/10/31 01:32:57;;;;;;;32.90;16.87;;;;;;;;;;5074169;28;20174;-67
2022/10/31 01:35:23;;;;;;;25.83;18.10;;;;;;;;;;5072504;28;20247;-68
2022/10/31 01:37:49;;;;;;;28.27;17.93;;;;;;;;;;5074264;28;20533;-68
2022/10/31 01:40:15;;;;;;;29.87;19.43;;;;;;;;;;5072373;28;20653;-67
2022/10/31 01:42:41;;;;;;;26.43;17.13;;;;;;;;;;5073466;28;20263;-68
2022/10/31 01:45:10;;;;;;;32.80;18.03;;;;;;;;;;5073600;28;20177;-68
2022/10/31 01:47:43;;;;;;;26.87;17.87;;;;;;;;;;5073559;28;20182;-68
2022/10/31 01:50:30;;;;;;;27.03;17.70;;;;;;;;;;5073076;28;20162;-68
2022/10/31 01:52:56;;;;;;;33.87;18.33;;;;;;;;;;5073838;28;20173;-68
2022/10/31 01:55:25;;;;;;;24.93;17.90;;;;;;;;;;5073729;28;20205;-68
2022/10/31 01:57:52;;;;;;;26.27;17.10;;;;;;;;;;5072168;28;20221;-68
2022/10/31 02:00:19;;;;;;;26.90;18.83;;;;;;;;;;5073416;28;20185;-68
2022/10/31 02:02:45;;;;;;;27.47;18.63;;;;;;;;;;5073858;28;20212;-68
2022/10/31 02:05:14;;;;;;;29.47;18.33;;;;;;;;;;5073247;28;20174;-68
2022/10/31 02:07:45;;;;;;;33.60;18.73;;;;;;;;;;5073390;28;20264;-68
2022/10/31 02:10:11;;;;;;;32.87;20.30;;;;;;;;;;5073177;28;20170;-68
2022/10/31 02:12:37;;;;;;;28.37;18.97;;;;;;;;;;5073228;28;20205;-68
2022/10/31 02:15:04;;;;;;;29.17;17.87;;;;;;;;;;5073249;28;20181;-68
2022/10/31 02:17:30;;;;;;;29.20;19.53;;;;;;;;;;5073487;28;20247;-68
2022/10/31 02:19:56;;;;;;;29.37;18.93;;;;;;;;;;5071879;28;20185;-68
2022/10/31 02:22:28;;;;;;;27.80;18.27;;;;;;;;;;5073154;28;20200;-68
2022/10/31 02:25:17;;;;;;;29.03;19.23;;;;;;;;;;5073310;28;20190;-69
2022/10/31 02:27:55;;;;;;;26.83;18.07;;;;;;;;;;5045126;28;20269;-68
2022/10/31 02:30:23;;;;;;;28.70;18.10;;;;;;;;;;5073973;28;20212;-68
2022/10/31 02:33:01;;;;;;;24.27;17.30;;;;;;;;;;5072480;28;20185;-68
2022/10/31 02:35:30;;;;;;;26.67;18.90;;;;;;;;;;5072836;28;20558;-68
2022/10/31 02:38:16;;;;;;;29.00;18.10;;;;;;;;;;5077510;28;20178;-68
2022/10/31 02:40:50;;;;;;;25.60;17.97;;;;;;;;;;5076806;28;20299;-68
2022/10/31 02:43:27;;;;;;;23.27;16.60;;;;;;;;;;5077105;28;20197;-68
2022/10/31 02:46:05;;;;;;;26.30;17.93;;;;;;;;;;5077343;28;20158;-68
2022/10/31 02:48:35;;;;;;;23.10;17.37;;;;;;;;;;5077757;28;20313;-68
2022/10/31 02:51:01;;;;;;;24.27;17.47;;;;;;;;;;5077395;28;20197;-68
2022/10/31 02:53:31;;;;;;;29.37;17.47;;;;;;;;;;5076152;28;20181;-67
2022/10/31 02:55:59;;;;;;;24.60;17.53;;;;;;;;;;5079645;28;20192;-68
2022/10/31 02:58:27;;;;;;;27.60;17.30;;;;;;;;;;5077807;28;20227;-68
2022/10/31 03:01:02;;;;;;;30.53;17.93;;;;;;;;;;5076981;28;20197;-68
2022/10/31 03:03:37;;;;;;;27.40;17.27;;;;;;;;;;5075507;28;20265;-68
2022/10/31 03:06:21;;;;;;;26.90;17.23;;;;;;;;;;5076816;28;20242;-67
2022/10/31 03:09:03;;;;;;;26.67;17.00;;;;;;;;;;5076983;28;20165;-68
2022/10/31 03:11:32;;;;;;;25.03;18.40;;;;;;;;;;5076706;28;20732;-68
2022/10/31 03:14:04;;;;;;;27.93;17.80;;;;;;;;;;5077072;28;20181;-68
2022/10/31 03:17:02;;;;;;;25.93;17.87;;;;;;;;;;5077374;28;20602;-68
2022/10/31 03:19:30;;;;;;;28.37;18.90;;;;;;;;;;5053910;28;20604;-69
2022/10/31 03:21:58;;;;;;;26.70;18.57;;;;;;;;;;5075136;28;20261;-68
2022/10/31 03:24:27;;;;;;;27.47;17.83;;;;;;;;;;5077051;28;20210;-68
2022/10/31 03:26:57;;;;;;;30.60;19.03;;;;;;;;;;5075163;28;20174;-69
2022/10/31 03:29:24;;;;;;;28.30;16.57;;;;;;;;;;5076353;28;20185;-68
2022/10/31 03:31:55;;;;;;;26.00;17.43;;;;;;;;;;5076272;28;20217;-68
2022/10/31 03:34:21;;;;;;;27.77;16.63;;;;;;;;;;5076279;28;20166;-70
2022/10/31 03:36:50;;;;;;;28.03;17.30;;;;;;;;;;5076310;28;20181;-68
2022/10/31 03:39:17;;;;;;;26.53;17.20;;;;;;;;;;5076105;28;20196;-68
2022/10/31 03:41:45;;;;;;;21.20;16.50;;;;;;;;;;5075985;28;20209;-68
2022/10/31 03:44:13;;;;;;;26.63;16.10;;;;;;;;;;5075963;28;20201;-68
2022/10/31 03:46:39;;;;;;;26.73;16.77;;;;;;;;;;5075853;28;20248;-68
2022/10/31 03:49:05;;;;;;;24.83;16.97;;;;;;;;;;5074883;28;20597;-68
2022/10/31 03:51:37;;;;;;;26.40;16.27;;;;;;;;;;5075961;28;20206;-69
2022/10/31 03:54:14;;;;;;;24.00;16.47;;;;;;;;;;5075770;28;20178;-68
2022/10/31 03:57:03;;;;;;;26.77;16.67;;;;;;;;;;5075804;28;20166;-68
2022/10/31 03:59:32;;;;;;;28.37;16.67;;;;;;;;;;5070532;28;20247;-68
2022/10/31 04:02:01;;;;;;;27.33;16.90;;;;;;;;;;5074324;28;20198;-68
2022/10/31 04:04:27;;;;;;;29.30;16.93;;;;;;;;;;5074208;28;20579;-68
2022/10/31 04:06:54;;;;;;;32.80;17.00;;;;;;;;;;5075492;28;20174;-68
2022/10/31 04:09:21;;;;;;;28.77;17.37;;;;;;;;;;5074326;28;20276;-69
2022/10/31 04:11:49;;;;;;;26.07;17.40;;;;;;;;;;5075329;28;20198;-68
2022/10/31 04:14:15;;;;;;;27.53;17.70;;;;;;;;;;5075704;28;20178;-68
2022/10/31 04:16:43;;;;;;;26.33;17.50;;;;;;;;;;5075342;28;20239;-67
2022/10/31 04:19:09;;;;;;;23.97;16.13;;;;;;;;;;5075364;28;20642;-67
2022/10/31 04:21:35;;;;;;;31.30;17.40;;;;;;;;;;5075280;28;20276;-68
2022/10/31 04:24:01;;;;;;;31.13;17.73;;;;;;;;;;5073859;28;20328;-68
2022/10/31 04:26:27;;;;;;;29.70;16.80;;;;;;;;;;5075158;28;20594;-68
2022/10/31 04:28:53;;;;;;;27.33;17.00;;;;;;;;;;5075070;28;20641;-69
2022/10/31 04:31:19;;;;;;;27.10;16.93;;;;;;;;;;5074944;28;20262;-68
2022/10/31 04:33:45;;;;;;;25.50;17.37;;;;;;;;;;5075017;28;20668;-68
2022/10/31 04:36:11;;;;;;;24.13;17.20;;;;;;;;;;5075047;28;20185;-68
2022/10/31 04:38:37;;;;;;;25.37;17.73;;;;;;;;;;5073677;28;20185;-67
2022/10/31 04:41:03;;;;;;;25.80;17.83;;;;;;;;;;5075004;28;20281;-68
2022/10/31 04:43:29;;;;;;;24.57;17.10;;;;;;;;;;5074786;28;20248;-68
2022/10/31 04:45:55;;;;;;;26.03;18.27;;;;;;;;;;5073543;28;20174;-67
2022/10/31 04:48:21;;;;;;;27.77;16.57;;;;;;;;;;5074692;28;20261;-68
2022/10/31 04:50:47;;;;;;;29.53;17.53;;;;;;;;;;5074638;28;20544;-68
2022/10/31 04:53:12;;;;;;;25.43;16.43;;;;;;;;;;5074966;28;20638;-68
2022/10/31 04:55:38;;;;;;;24.33;16.53;;;;;;;;;;5074675;28;20568;-68
2022/10/31 04:58:04;;;;;;;26.97;16.57;;;;;;;;;;5072726;28;20185;-68
2022/10/31 05:00:30;;;;;;;24.23;17.03;;;;;;;;;;5073128;28;20181;-68
2022/10/31 05:02:57;;;;;;;24.17;17.10;;;;;;;;;;5074418;28;20202;-68
2022/10/31 05:05:24;;;;;;;27.13;17.20;;;;;;;;;;5074334;28;20259;-68
2022/10/31 05:07:51;;;;;;;25.50;16.57;;;;;;;;;;5074436;28;20181;-68
2022/10/31 05:10:18;;;;;;;23.97;17.63;;;;;;;;;;5074566;28;20209;-68
2022/10/31 05:13:03;;;;;;;24.47;16.40;;;;;;;;;;5072941;28;20200;-68
2022/10/31 05:15:29;;;;;;;30.57;16.27;;;;;;;;;;5073008;28;20165;-68
2022/10/31 05:17:55;;;;;;;27.70;16.90;;;;;;;;;;5072950;28;20243;-68
2022/10/31 05:20:23;;;;;;;28.63;16.67;;;;;;;;;;5072676;28;20188;-68
2022/10/31 05:22:50;;;;;;;22.03;15.20;;;;;;;;;;5073991;28;20239;-68
2022/10/31 05:25:16;;;;;;;21.13;14.73;;;;;;;;;;5074021;28;20235;-70
2022/10/31 05:27:43;;;;;;;26.73;16.20;;;;;;;;;;5072755;28;20603;-68
2022/10/31 05:30:10;;;;;;;24.87;16.70;;;;;;;;;;5073882;28;20669;-68
2022/10/31 05:32:43;;;;;;;21.80;15.70;;;;;;;;;;5073774;28;20252;-68
2022/10/31 05:35:10;;;;;;;25.80;16.43;;;;;;;;;;5072626;28;20657;-68
2022/10/31 05:37:37;;;;;;;22.30;15.67;;;;;;;;;;5074104;28;20180;-68
2022/10/31 05:40:04;;;;;;;28.40;16.10;;;;;;;;;;5072479;28;20213;-68
2022/10/31 05:42:29;;;;;;;28.10;16.33;;;;;;;;;;5072405;28;20232;-68
2022/10/31 05:44:55;;;;;;;23.37;15.67;;;;;;;;;;5072416;28;20665;-68
2022/10/31 05:47:21;;;;;;;25.57;16.10;;;;;;;;;;5072450;28;20299;-68
2022/10/31 05:49:47;;;;;;;29.93;17.50;;;;;;;;;;5072462;28;20256;-68
2022/10/31 05:52:14;;;;;;;26.90;16.93;;;;;;;;;;5072243;28;20300;-69
2022/10/31 05:54:40;;;;;;;27.27;16.90;;;;;;;;;;5072216;28;20189;-68
2022/10/31 05:57:05;;;;;;;24.50;17.70;;;;;;;;;;5072324;28;20182;-68
2022/10/31 05:59:31;;;;;;;30.90;16.83;;;;;;;;;;5072223;28;20178;-68
2022/10/31 06:01:58;;;;;;;22.63;16.97;;;;;;;;;;5072158;28;20659;-68
2022/10/31 06:04:23;;;;;;;26.40;17.60;;;;;;;;;;5072024;28;20212;-68
2022/10/31 06:06:49;;;;;;;24.80;17.93;;;;;;;;;;5072101;28;20610;-67
2022/10/31 06:09:15;;;;;;;25.77;16.43;;;;;;;;;;5071915;28;20646;-68
2022/10/31 06:11:41;;;;;;;23.53;16.23;;;;;;;;;;5071817;28;20202;-68
2022/10/31 06:14:07;;;;;;;26.53;16.60;;;;;;;;;;5076837;28;20219;-68
2022/10/31 06:16:33;;;;;;;28.73;16.50;;;;;;;;;;5076176;28;20177;-67
2022/10/31 06:18:59;;;;;;;25.70;18.00;;;;;;;;;;5075636;28;20177;-68
2022/10/31 06:21:25;;;;;;;24.33;18.03;;;;;;;;;;5074759;28;20209;-68
2022/10/31 06:23:51;;;;;;;28.03;16.80;;;;;;;;;;5073811;28;20288;-68
2022/10/31 06:26:17;;;;;;;29.10;17.53;;;;;;;;;;5073354;28;20256;-68
2022/10/31 06:28:43;;;;;;;28.50;17.00;;;;;;;;;;5073187;28;20665;-68
2022/10/31 06:31:09;;;;;;;22.67;16.53;;;;;;;;;;5071624;28;20224;-68
2022/10/31 06:33:35;;;;;;;28.07;16.77;;;;;;;;;;5073648;28;20170;-68
2022/10/31 06:36:01;;;;;;;26.67;17.47;;;;;;;;;;5073390;28;20181;-68
2022/10/31 06:38:28;;;;;;;29.07;17.70;;;;;;;;;;5073077;28;20178;-68
2022/10/31 06:40:54;;;;;;;23.43;16.67;;;;;;;;;;5071770;28;20206;-68
2022/10/31 06:43:21;;;;;;;25.67;17.03;;;;;;;;;;5073252;28;20255;-68
2022/10/31 06:45:47;;;;;;;29.00;18.10;;;;;;;;;;5072938;28;20224;-68
2022/10/31 06:48:12;;;;;;;35.73;17.43;;;;;;;;;;5088792;22;20170;-69
2022/10/31 06:50:38;;;;;;;28.40;17.43;;;;;;;;;;5053306;28;20198;-68
2022/10/31 06:53:04;;;;;;;33.87;18.37;;;;;;;;;;5035067;28;20269;-68
2022/10/31 06:55:30;;;;;;;35.40;17.47;;;;;;;;;;5052948;28;20178;-68
2022/10/31 06:57:57;;;;;;;24.47;16.63;;;;;;;;;;5052856;28;20178;-68
2022/10/31 07:00:23;;;;;;;26.07;16.00;;;;;;;;;;5053150;28;20627;-68
2022/10/31 07:03:01;;;;;;;26.40;17.50;;;;;;;;;;5052689;28;20181;-68
2022/10/31 07:05:27;;;;;;;24.40;16.93;;;;;;;;;;5052861;28;20178;-68
2022/10/31 07:07:54;;;;;;;26.90;17.40;;;;;;;;;;5052952;28;20175;-68
2022/10/31 07:10:20;;;;;;;30.03;17.93;;;;;;;;;;5052703;28;20226;-68
2022/10/31 07:12:46;;;;;;;26.83;16.77;;;;;;;;;;5053032;28;20640;-68
2022/10/31 07:15:12;;;;;;;24.47;17.10;;;;;;;;;;5053053;28;20181;-68
2022/10/31 07:17:38;;;;;;;24.50;17.00;;;;;;;;;;5052691;28;20261;-68
2022/10/31 07:20:05;;;;;;;26.63;17.30;;;;;;;;;;5052550;28;20733;-68
2022/10/31 07:22:34;;;;;;;29.77;18.07;;;;;;;;;;5055193;28;20639;-68
2022/10/31 07:25:00;;;;;;;24.33;16.67;;;;;;;;;;5038349;28;20202;-68
2022/10/31 07:27:26;;;;;;;33.90;17.77;;;;;;;;;;5038396;28;20197;-68
2022/10/31 07:29:52;;;;;;;29.57;18.27;;;;;;;;;;5038428;28;20268;-68
2022/10/31 07:32:18;;;;;;;21.43;16.57;;;;;;;;;;5056305;28;20217;-68
2022/10/31 07:34:44;;;;;;;27.43;16.13;;;;;;;;;;5039661;28;20186;-66
2022/10/31 07:37:10;;;;;;;29.33;16.87;;;;;;;;;;5039541;28;20186;-66
2022/10/31 07:39:36;;;;;;;30.97;18.53;;;;;;;;;;5039383;28;20203;-67
2022/10/31 07:42:02;;;;;;;34.67;18.83;;;;;;;;;;5058406;28;20182;-66
2022/10/31 07:44:27;;;;;;;30.97;17.33;;;;;;;;;;5039394;28;20648;-66
2022/10/31 07:46:53;;;;;;;29.33;17.13;;;;;;;;;;5057350;28;20178;-66
2022/10/31 07:49:19;;;;;;;28.27;17.30;;;;;;;;;;5038835;28;20249;-67
2022/10/31 07:51:45;;;;;;;26.07;17.87;;;;;;;;;;5056987;28;20182;-66
2022/10/31 07:54:11;;;;;;;25.07;17.47;;;;;;;;;;5038968;28;20232;-66
2022/10/31 07:56:37;;;;;;;30.80;18.87;;;;;;;;;;5056923;28;20178;-66
2022/10/31 07:59:03;;;;;;;29.27;18.33;;;;;;;;;;5056500;28;20659;-66
2022/10/31 08:01:29;;;;;;;37.80;18.37;;;;;;;;;;5038706;28;20178;-66
2022/10/31 08:03:55;;;;;;;34.37;17.97;;;;;;;;;;5057424;28;20202;-67
2022/10/31 08:06:21;;;;;;;25.47;17.30;;;;;;;;;;5056638;28;20185;-67
2022/10/31 08:08:47;;;;;;;31.37;19.23;;;;;;;;;;5056055;28;20194;-67
2022/10/31 08:11:13;;;;;;;28.80;17.93;;;;;;;;;;5055855;28;20662;-67
2022/10/31 08:13:39;;;;;;;34.67;17.70;;;;;;;;;;5055713;28;20209;-67
2022/10/31 08:16:07;;;;;;;27.83;17.70;;;;;;;;;;5037721;28;20308;-67
2022/10/31 08:18:33;;;;;;;37.03;17.87;;;;;;;;;;5037594;28;20276;-67
2022/10/31 08:20:59;;;;;;;28.13;17.37;;;;;;;;;;5055534;28;20175;-68
2022/10/31 08:23:25;;;;;;;28.03;19.07;;;;;;;;;;5037423;28;20264;-67
2022/10/31 08:25:51;;;;;;;32.23;19.50;;;;;;;;;;5037653;28;20174;-67
2022/10/31 08:28:17;;;;;;;36.93;19.30;;;;;;;;;;5055664;28;20175;-67
2022/10/31 08:30:43;;;;;;;33.93;18.37;;;;;;;;;;5055679;28;20171;-66
2022/10/31 08:33:16;;;;;;;31.60;19.13;;;;;;;;;;5054286;28;20174;-66
2022/10/31 08:35:42;;;;;;;26.77;18.83;;;;;;;;;;5055611;28;20179;-66
2022/10/31 08:38:09;;;;;;;32.40;19.50;;;;;;;;;;5055487;28;20214;-66
2022/10/31 08:40:35;;;;;;;29.87;19.93;;;;;;;;;;5055261;28;20193;-66
2022/10/31 08:43:03;;;;;;;32.87;20.17;;;;;;;;;;5037285;28;20210;-66
2022/10/31 08:45:30;;;;;;;35.20;20.03;;;;;;;;;;5055180;28;20186;-66
2022/10/31 08:48:03;;;;;;;40.57;22.53;;;;;;;;;;5055017;28;20178;-69
2022/10/31 08:50:30;;;;;;;36.20;21.43;;;;;;;;;;5055196;28;20223;-66
2022/10/31 08:53:28;;;;;;;42.10;22.07;;;;;;;;;;5056078;28;20213;-66
2022/10/31 08:55:57;;;;;;;44.53;21.47;;;;;;;;;;5013770;28;20674;-66
2022/10/31 08:58:24;;;;;;;45.50;21.63;;;;;;;;;;5038072;28;20190;-65
2022/10/31 09:00:53;;;;;;;41.20;21.27;;;;;;;;;;5056283;28;20637;-66
2022/10/31 09:03:24;;;;;;;37.73;20.63;;;;;;;;;;5055662;28;20199;-66
2022/10/31 09:05:50;;;;;;;42.80;20.70;;;;;;;;;;5055049;28;20261;-66
2022/10/31 09:08:17;;;;;;;46.40;21.47;;;;;;;;;;5055139;28;20174;-66
2022/10/31 09:10:43;;;;;;;44.77;23.13;;;;;;;;;;5054971;28;20273;-66
2022/10/31 09:13:17;;;;;;;37.93;20.97;;;;;;;;;;5055928;28;20572;-66
2022/10/31 09:15:43;;;;;;;51.33;22.90;;;;;;;;;;5037576;28;20197;-66
2022/10/31 09:18:10;;;;;;;48.73;22.63;;;;;;;;;;5054509;28;20185;-66
2022/10/31 09:20:36;;;;;;;37.97;21.53;;;;;;;;;;5054683;28;20174;-66
2022/10/31 09:23:21;;;;;;;38.43;21.03;;;;;;;;;;5054478;28;20241;-67
2022/10/31 09:25:48;;;;;;;38.97;21.83;;;;;;;;;;5036934;28;20190;-67
2022/10/31 09:28:15;;;;;;;44.40;22.53;;;;;;;;;;5054455;28;20175;-66
2022/10/31 09:30:42;;;;;;;40.97;22.27;;;;;;;;;;5055287;28;20636;-67
2022/10/31 09:33:11;;;;;;;39.60;22.40;;;;;;;;;;5055516;28;20186;-68
2022/10/31 09:35:37;;;;;;;39.07;22.83;;;;;;;;;;5055017;28;20178;-66
2022/10/31 09:38:08;;;;;;;38.83;21.10;;;;;;;;;;5054499;28;20187;-67
2022/10/31 09:40:34;;;;;;;50.53;23.13;;;;;;;;;;5036783;28;20179;-67
2022/10/31 09:43:06;;;;;;;40.87;21.63;;;;;;;;;;5037053;28;20625;-67
2022/10/31 09:45:38;;;;;;;32.20;20.63;;;;;;;;;;5054332;28;20178;-68
2022/10/31 09:48:22;;;;;;;34.90;20.93;;;;;;;;;;5054955;28;20174;-68
2022/10/31 09:50:54;;;;;;;35.37;21.37;;;;;;;;;;5054409;28;20181;-68
2022/10/31 09:53:35;;;;;;;40.03;21.67;;;;;;;;;;5055546;28;20178;-67
2022/10/31 09:56:02;;;;;;;37.83;21.97;;;;;;;;;;5054700;28;20179;-67
2022/10/31 09:58:30;;;;;;;39.10;21.77;;;;;;;;;;5036647;28;20205;-68
2022/10/31 10:00:57;;;;;;;31.87;21.13;;;;;;;;;;5036838;28;20187;-66
2022/10/31 10:03:36;;;;;;;32.00;20.30;;;;;;;;;;5054055;28;20229;-66
2022/10/31 10:06:15;;;;;;;32.43;20.30;;;;;;;;;;5054155;28;20268;-68
2022/10/31 10:08:41;;;;;;;36.80;19.83;;;;;;;;;;5055048;28;20257;-68
2022/10/31 10:11:16;;;;;;;37.80;20.40;;;;;;;;;;5035866;28;20181;-65
2022/10/31 10:13:52;;;;;;;42.37;22.17;;;;;;;;;;5036332;28;20243;-66
2022/10/31 10:16:24;;;;;;;41.80;22.20;;;;;;;;;;5053991;28;20189;-68
2022/10/31 10:19:09;;;;;;;34.33;20.47;;;;;;;;;;5053893;28;20194;-67
2022/10/31 10:21:57;;;;;;;33.73;19.57;;;;;;;;;;5053701;28;20228;-66
2022/10/31 10:24:23;;;;;;;24.17;17.93;;;;;;;;;;5036010;28;20581;-67
2022/10/31 10:26:54;;;;;;;32.37;17.23;;;;;;;;;;5054014;28;20180;-66
2022/10/31 10:29:31;;;;;;;37.13;19.10;;;;;;;;;;5053555;28;20194;-66
2022/10/31 10:31:59;;;;;;;35.83;19.80;;;;;;;;;;5035701;28;20174;-66
2022/10/31 10:34:35;;;;;;;35.70;19.53;;;;;;;;;;5053507;28;20174;-66
2022/10/31 10:37:03;;;;;;;34.33;20.73;;;;;;;;;;5053515;28;20638;-66
2022/10/31 10:39:41;;;;;;;37.37;21.67;;;;;;;;;;5053273;28;20286;-66
2022/10/31 10:47:49;;;;;;;35.90;22.07;;;;;;;;;;5053687;28;20702;-66
2022/10/31 10:50:19;;;;;;;44.23;22.73;;;;;;;;;;5053194;28;20253;-66
2022/10/31 10:52:52;;;;;;;39.37;22.33;;;;;;;;;;5053118;28;20182;-66
2022/10/31 10:55:24;;;;;;;42.87;24.17;;;;;;;;;;5053337;28;20525;-69
2022/10/31 10:57:53;;;;;;;40.37;23.37;;;;;;;;;;5056594;28;20174;-69
2022/10/31 11:00:23;;;;;;;37.17;25.20;;;;;;;;;;5057207;28;20194;-68
2022/10/31 11:02:50;;;;;;;38.47;24.13;;;;;;;;;;5056792;28;20175;-66
2022/10/31 11:05:36;;;;;;;45.33;24.17;;;;;;;;;;5039519;28;20236;-66
2022/10/31 11:08:03;;;;;;;45.60;25.73;;;;;;;;;;5057155;28;20192;-66
2022/10/31 11:10:30;;;;;;;41.90;24.13;;;;;;;;;;5057000;28;20174;-66
2022/10/31 11:13:19;;;;;;;39.43;23.40;;;;;;;;;;5057403;28;20174;-66
2022/10/31 11:15:53;;;;;;;48.60;24.63;;;;;;;;;;5046273;28;20229;-68
2022/10/31 11:18:24;;;;;;;38.67;21.77;;;;;;;;;;5039046;28;21550;-66
2022/10/31 11:20:54;;;;;;;40.47;23.43;;;;;;;;;;5057039;28;20202;-68
2022/10/31 11:23:21;;;;;;;38.43;21.80;;;;;;;;;;5038531;28;20260;-66
2022/10/31 11:25:52;;;;;;;39.17;23.07;;;;;;;;;;5056368;28;20243;-66
2022/10/31 11:28:18;;;;;;;37.73;21.67;;;;;;;;;;5056390;28;20614;-66
2022/10/31 11:30:55;;;;;;;42.27;22.87;;;;;;;;;;5038623;28;20202;-66
2022/10/31 11:33:27;;;;;;;36.57;22.07;;;;;;;;;;5056540;28;20177;-66
2022/10/31 11:35:53;;;;;;;34.93;21.53;;;;;;;;;;5056128;28;20182;-66
2022/10/31 11:38:20;;;;;;;36.53;23.57;;;;;;;;;;5056363;28;20178;-66
2022/10/31 11:41:01;;;;;;;32.43;22.30;;;;;;;;;;5038544;28;20229;-66
2022/10/31 11:43:27;;;;;;;33.73;21.63;;;;;;;;;;5038222;28;20206;-69
2022/10/31 11:45:53;;;;;;;35.40;20.93;;;;;;;;;;5038238;28;20247;-69
2022/10/31 11:48:21;;;;;;;29.17;19.83;;;;;;;;;;5055774;28;20253;-69
2022/10/31 11:50:52;;;;;;;39.03;19.80;;;;;;;;;;5056156;28;20190;-69
2022/10/31 11:53:25;;;;;;;36.53;18.97;;;;;;;;;;5055898;28;20205;-69
2022/10/31 11:56:01;;;;;;;31.27;18.20;;;;;;;;;;5056003;28;20189;-69
2022/10/31 11:58:27;;;;;;;26.33;17.57;;;;;;;;;;5038089;28;20732;-69
2022/10/31 12:00:55;;;;;;;29.13;16.70;;;;;;;;;;5056197;28;20257;-69
2022/10/31 12:03:24;;;;;;;24.53;17.30;;;;;;;;;;5056003;28;20690;-69
2022/10/31 12:05:53;;;;;;;30.70;17.57;;;;;;;;;;5056008;28;20639;-69
2022/10/31 12:08:19;;;;;;;29.33;16.93;;;;;;;;;;5054491;28;20182;-69
2022/10/31 12:10:58;;;;;;;29.30;16.47;;;;;;;;;;5055787;28;20174;-69
2022/10/31 12:13:31;;;;;;;24.57;17.00;;;;;;;;;;5056166;28;20253;-69
2022/10/31 12:16:05;;;;;;;27.37;16.10;;;;;;;;;;5055641;28;20174;-69
2022/10/31 12:18:44;;;;;;;31.07;17.00;;;;;;;;;;5037783;28;20210;-69
2022/10/31 12:21:10;;;;;;;30.43;17.73;;;;;;;;;;5037585;28;20182;-69
2022/10/31 12:23:36;;;;;;;25.63;15.67;;;;;;;;;;5037501;28;20206;-69
2022/10/31 12:26:10;;;;;;;23.83;16.17;;;;;;;;;;5055370;28;20171;-69
2022/10/31 12:28:55;;;;;;;28.87;16.60;;;;;;;;;;5055281;28;20208;-67
2022/10/31 12:31:42;;;;;;;28.73;16.60;;;;;;;;;;5055599;28;20209;-69
2022/10/31 12:34:08;;;;;;;25.50;15.13;;;;;;;;;;5037523;28;20263;-69
2022/10/31 12:36:43;;;;;;;21.57;12.90;;;;;;;;;;5055315;28;20203;-68
2022/10/31 12:39:28;;;;;;;18.87;13.33;;;;;;;;;;5037658;28;20205;-69
2022/10/31 12:42:06;;;;;;;25.73;13.27;;;;;;;;;;5055077;28;20260;-69
2022/10/31 12:44:48;;;;;;;29.67;16.07;;;;;;;;;;5055202;28;20208;-69
2022/10/31 12:47:25;;;;;;;25.13;14.13;;;;;;;;;;5037022;28;20304;-68
2022/10/31 12:49:59;;;;;;;21.93;11.13;;;;;;;;;;5054633;28;20209;-68
2022/10/31 12:52:25;;;;;;;26.67;10.67;;;;;;;;;;5054852;28;20184;-68
2022/10/31 12:54:58;;;;;;;17.93;9.90;;;;;;;;;;5054883;28;20257;-70
2022/10/31 12:57:35;;;;;;;19.00;10.70;;;;;;;;;;5055332;28;20159;-66
2022/10/31 13:00:04;;;;;;;23.50;12.70;;;;;;;;;;5054950;28;20539;-68
2022/10/31 13:02:42;;;;;;;19.37;11.37;;;;;;;;;;5055140;28;20185;-68
2022/10/31 13:05:26;;;;;;;21.43;12.00;;;;;;;;;;5054907;28;20198;-67
2022/10/31 13:08:13;;;;;;;16.43;10.13;;;;;;;;;;5054627;28;20178;-68
2022/10/31 13:10:46;;;;;;;16.73;10.63;;;;;;;;;;5054707;28;20162;-68
2022/10/31 13:13:15;;;;;;;17.33;9.60;;;;;;;;;;5071350;22;20258;-68
2022/10/31 13:15:49;;;;;;;20.73;10.20;;;;;;;;;;5054495;28;20186;-68
2022/10/31 13:18:23;;;;;;;18.77;9.83;;;;;;;;;;5054392;28;20265;-69
2022/10/31 13:20:50;;;;;;;23.80;10.87;;;;;;;;;;5052444;28;20178;-68
2022/10/31 13:23:28;;;;;;;23.00;9.87;;;;;;;;;;5053764;28;20213;-68
2022/10/31 13:25:55;;;;;;;16.23;8.83;;;;;;;;;;5054018;28;20162;-68
2022/10/31 13:28:36;;;;;;;19.87;10.63;;;;;;;;;;5052855;28;20554;-69
2022/10/31 13:31:02;;;;;;;18.93;8.73;;;;;;;;;;5053941;28;20185;-68
2022/10/31 13:33:31;;;;;;;18.87;9.10;;;;;;;;;;5053818;28;20273;-68
2022/10/31 13:36:09;;;;;;;17.60;10.00;;;;;;;;;;5054056;28;20650;-67
2022/10/31 13:38:47;;;;;;;21.97;9.93;;;;;;;;;;5054243;28;20271;-68
2022/10/31 13:41:30;;;;;;;18.80;10.87;;;;;;;;;;5052768;28;20626;-68
2022/10/31 13:44:01;;;;;;;17.90;9.83;;;;;;;;;;5054243;28;20555;-68
2022/10/31 13:46:33;;;;;;;22.90;10.30;;;;;;;;;;5053813;28;20178;-68
2022/10/31 13:48:59;;;;;;;19.30;9.67;;;;;;;;;;5053831;28;20232;-69
2022/10/31 13:51:28;;;;;;;20.90;9.70;;;;;;;;;;5054113;28;20626;-68
2022/10/31 13:54:19;;;;;;;18.20;9.03;;;;;;;;;;5053859;28;20232;-69
2022/10/31 13:56:48;;;;;;;15.93;7.10;;;;;;;;;;5053446;28;20166;-69
2022/10/31 13:59:19;;;;;;;20.13;5.97;;;;;;;;;;5052131;28;20174;-68
2022/10/31 14:01:52;;;;;;;14.07;6.00;;;;;;;;;;5053604;28;20159;-68
2022/10/31 14:04:21;;;;;;;13.57;5.43;;;;;;;;;;5052121;28;20214;-69
2022/10/31 14:06:58;;;;;;;15.77;5.73;;;;;;;;;;5053956;28;20186;-69
2022/10/31 14:09:35;;;;;;;10.10;5.00;;;;;;;;;;5053644;28;20185;-69
2022/10/31 14:12:21;;;;;;;10.13;5.50;;;;;;;;;;5052947;28;20596;-69
2022/10/31 14:14:49;;;;;;;15.77;5.90;;;;;;;;;;5053558;28;20224;-68
2022/10/31 14:17:26;;;;;;;13.57;5.90;;;;;;;;;;5051978;28;20182;-69
2022/10/31 14:20:21;;;;;;;11.53;6.10;;;;;;;;;;5053492;28;20549;-68
2022/10/31 14:22:47;;;;;;;16.97;6.40;;;;;;;;;;5040333;28;20225;-70
2022/10/31 14:25:25;;;;;;;13.80;6.97;;;;;;;;;;5053291;28;20218;-68
2022/10/31 14:27:52;;;;;;;12.17;6.50;;;;;;;;;;5052021;28;20594;-68
2022/10/31 14:30:22;;;;;;;16.53;6.37;;;;;;;;;;5053180;28;20174;-69
2022/10/31 14:33:14;;;;;;;17.17;6.27;;;;;;;;;;5051285;28;20198;-68
2022/10/31 14:35:59;;;;;;;16.77;6.60;;;;;;;;;;5048306;28;20189;-67
2022/10/31 14:38:32;;;;;;;13.93;6.20;;;;;;;;;;5051920;28;20209;-67